createdAt,value
2023-05-11T00:02:17.760Z,99.90
2023-05-11T00:06:19.567Z,99.90
2023-05-11T00:10:21.518Z,99.90
2023-05-11T00:14:23.311Z,99.90
2023-05-11T00:18:26.276Z,99.90
2023-05-11T00:22:27.981Z,99.90
2023-05-11T00:26:29.728Z,99.90
2023-05-11T00:30:31.476Z,99.90
2023-05-11T00:34:33.257Z,99.90
2023-05-11T00:38:36.627Z,99.90
2023-05-11T00:42:38.332Z,99.90
2023-05-11T00:46:40.068Z,99.90
2023-05-11T00:50:41.893Z,99.90
2023-05-11T00:54:43.657Z,99.90
2023-05-11T00:58:45.687Z,99.90
2023-05-11T01:02:47.442Z,99.90
2023-05-11T01:07:04.811Z,99.90
2023-05-11T01:11:21.679Z,99.90
2023-05-11T01:15:46.997Z,99.90
2023-05-11T01:19:51.257Z,99.90
2023-05-11T01:24:27.101Z,99.90
2023-05-11T01:29:00.344Z,99.90
2023-05-11T01:33:06.354Z,99.90
2023-05-11T01:37:14.508Z,99.90
2023-05-11T01:41:17.704Z,99.90
2023-05-11T01:45:19.481Z,99.90
2023-05-11T01:49:21.218Z,99.90
2023-05-11T01:53:23.062Z,99.90
2023-05-11T01:57:24.846Z,99.90
2023-05-11T02:01:33.389Z,99.90
2023-05-11T02:05:35.141Z,99.90
2023-05-11T02:09:43.399Z,99.90
2023-05-11T02:13:45.414Z,99.90
2023-05-11T02:17:53.509Z,99.90
2023-05-11T02:21:55.713Z,99.90
2023-05-11T02:25:57.537Z,99.90
2023-05-11T02:29:59.330Z,99.90
2023-05-11T02:34:06.875Z,99.90
2023-05-11T02:38:08.572Z,99.90
2023-05-11T02:42:15.504Z,99.90
2023-05-11T02:46:23.535Z,99.90
2023-05-11T02:50:25.737Z,99.90
2023-05-11T02:54:27.624Z,99.90
2023-05-11T02:58:30.308Z,99.90
2023-05-11T03:02:32.228Z,99.90
2023-05-11T03:06:34.198Z,99.90
2023-05-11T03:10:36.296Z,99.90
2023-05-11T03:14:38.114Z,99.90
2023-05-11T03:18:39.946Z,99.90
2023-05-11T03:22:41.710Z,99.90
2023-05-11T03:26:43.818Z,99.90
2023-05-11T03:30:45.692Z,99.90
2023-05-11T03:34:47.483Z,99.90
2023-05-11T03:38:49.422Z,99.90
2023-05-11T03:42:54.783Z,99.90
2023-05-11T03:46:56.514Z,99.90
2023-05-11T03:50:58.641Z,99.90
2023-05-11T03:55:00.389Z,99.90
2023-05-11T03:59:03.872Z,99.90
2023-05-11T04:03:06.860Z,99.90
2023-05-11T04:07:08.710Z,99.90
2023-05-11T04:11:10.940Z,99.90
2023-05-11T04:15:15.618Z,99.90
2023-05-11T04:19:20.451Z,99.90
2023-05-11T04:23:25.539Z,99.90
2023-05-11T04:27:32.536Z,99.90
2023-05-11T04:31:34.642Z,99.90
2023-05-11T04:35:39.816Z,99.90
2023-05-11T04:39:41.741Z,99.90
2023-05-11T04:43:43.505Z,99.90
2023-05-11T04:48:16.846Z,99.90
2023-05-11T04:52:19.789Z,99.90
2023-05-11T04:56:21.935Z,99.90
2023-05-11T05:00:23.860Z,99.90
2023-05-11T05:04:25.633Z,99.90
2023-05-11T05:08:58.879Z,99.90
2023-05-11T05:13:03.441Z,99.90
2023-05-11T05:17:05.545Z,99.90
2023-05-11T05:21:07.331Z,99.90
2023-05-11T05:25:10.436Z,99.90
2023-05-11T05:29:12.288Z,99.90
2023-05-11T05:33:14.255Z,99.90
2023-05-11T05:37:16.123Z,99.90
2023-05-11T05:41:17.885Z,99.90
2023-05-11T05:45:19.692Z,99.90
2023-05-11T05:49:26.389Z,99.90
2023-05-11T05:53:28.318Z,99.90
2023-05-11T05:57:34.457Z,99.90
2023-05-11T06:01:37.507Z,99.90
2023-05-11T06:05:39.321Z,99.90
2023-05-11T06:09:41.176Z,99.90
2023-05-11T06:14:03.859Z,99.90
2023-05-11T06:18:05.917Z,99.90
2023-05-11T06:22:08.024Z,99.90
2023-05-11T06:26:42.978Z,99.90
2023-05-11T06:30:44.761Z,99.90
2023-05-11T06:34:49.658Z,99.90
2023-05-11T06:38:54.305Z,99.90
2023-05-11T06:43:04.109Z,99.90
2023-05-11T06:47:06.952Z,99.90
2023-05-11T06:51:11.962Z,99.90
2023-05-11T06:55:16.440Z,99.90
2023-05-11T06:59:18.362Z,99.90
2023-05-11T07:03:20.117Z,99.90
2023-05-11T07:07:30.702Z,99.90
2023-05-11T07:11:32.677Z,99.90
2023-05-11T07:15:34.534Z,99.70
2023-05-11T07:19:36.380Z,99.90
2023-05-11T07:23:38.140Z,99.40
2023-05-11T07:27:39.906Z,99.00
2023-05-11T07:31:42.994Z,97.70
2023-05-11T07:35:44.909Z,97.70
2023-05-11T07:39:46.607Z,96.90
2023-05-11T07:43:48.577Z,96.40
2023-05-11T07:47:50.877Z,96.30
2023-05-11T07:51:53.282Z,96.90
2023-05-11T07:55:55.162Z,96.60
2023-05-11T07:59:56.963Z,96.00
2023-05-11T08:03:59.155Z,96.30
2023-05-11T08:08:01.929Z,97.00
2023-05-11T08:12:06.019Z,96.30
2023-05-11T08:16:07.944Z,96.20
2023-05-11T08:20:10.311Z,95.70
2023-05-11T08:24:12.634Z,95.90
2023-05-11T08:28:14.379Z,95.70
2023-05-11T08:32:16.242Z,96.10
2023-05-11T08:36:18.071Z,96.00
2023-05-11T08:40:20.337Z,95.40
2023-05-11T08:44:22.151Z,95.40
2023-05-11T08:48:24.062Z,94.90
2023-05-11T08:52:26.813Z,94.70
2023-05-11T08:56:28.613Z,94.50
2023-05-11T09:00:30.589Z,94.80
2023-05-11T09:04:32.743Z,94.40
2023-05-11T09:08:37.510Z,94.40
2023-05-11T09:12:39.288Z,94.00
2023-05-11T09:16:41.541Z,94.40
2023-05-11T09:20:43.761Z,94.60
2023-05-11T09:24:45.721Z,94.60
2023-05-11T09:29:03.028Z,94.40
2023-05-11T09:33:05.605Z,93.30
2023-05-11T09:37:07.444Z,94.00
2023-05-11T09:41:09.280Z,93.60
2023-05-11T09:45:11.227Z,93.70
2023-05-11T09:49:13.107Z,93.80
2023-05-11T09:53:14.863Z,93.70
2023-05-11T09:57:45.885Z,93.10
2023-05-11T10:01:47.725Z,93.50
2023-05-11T10:05:59.948Z,93.10
2023-05-11T10:10:03.427Z,93.00
2023-05-11T10:14:05.739Z,93.30
2023-05-11T10:18:07.850Z,92.40
2023-05-11T10:22:09.979Z,92.00
2023-05-11T10:26:11.772Z,92.10
2023-05-11T10:30:13.903Z,92.60
2023-05-11T10:34:15.611Z,92.50
2023-05-11T10:38:17.476Z,92.20
2023-05-11T10:42:40.708Z,91.90
2023-05-11T10:47:22.178Z,91.90
2023-05-11T10:51:54.921Z,91.70
2023-05-11T10:56:10.433Z,91.80
2023-05-11T11:00:43.861Z,91.80
2023-05-11T11:04:47.156Z,92.50
2023-05-11T11:09:16.208Z,92.50
2023-05-11T11:13:20.184Z,93.10
2023-05-11T11:17:23.474Z,92.30
2023-05-11T11:21:41.875Z,92.60
2023-05-11T11:25:56.428Z,92.50
2023-05-11T11:30:18.341Z,93.10
2023-05-11T11:34:29.407Z,93.30
2023-05-11T11:38:33.252Z,93.10
2023-05-11T11:42:37.669Z,93.50
2023-05-11T11:46:39.475Z,93.60
2023-05-11T11:50:42.399Z,93.40
2023-05-11T11:54:45.001Z,92.50
2023-05-11T11:58:49.810Z,92.80
2023-05-11T12:02:51.706Z,92.70
2023-05-11T12:06:58.166Z,92.70
2023-05-11T12:11:00.408Z,92.60
2023-05-11T12:15:03.707Z,93.00
2023-05-11T12:19:07.265Z,92.80
2023-05-11T12:23:25.895Z,92.90
2023-05-11T12:27:29.107Z,93.00
2023-05-11T12:31:41.246Z,93.30
2023-05-11T12:35:55.026Z,93.80
2023-05-11T12:40:21.434Z,93.60
2023-05-11T12:44:40.022Z,93.70
2023-05-11T12:48:48.560Z,93.50
2023-05-11T12:52:55.025Z,93.80
2023-05-11T12:57:25.166Z,93.70
2023-05-11T13:01:38.469Z,94.00
2023-05-11T13:05:46.446Z,93.90
2023-05-11T13:09:58.440Z,94.30
2023-05-11T13:14:00.420Z,94.30
2023-05-11T13:18:02.846Z,93.90
2023-05-11T13:22:08.395Z,94.20
2023-05-11T13:26:19.141Z,93.50
2023-05-11T13:30:20.925Z,93.40
2023-05-11T13:34:23.014Z,92.90
2023-05-11T13:38:27.557Z,92.80
2023-05-11T13:42:33.181Z,92.40
2023-05-11T13:46:35.599Z,92.40
2023-05-11T13:50:37.482Z,91.80
2023-05-11T13:54:44.531Z,91.80
2023-05-11T13:58:46.501Z,91.40
2023-05-11T14:02:50.621Z,91.40
2023-05-11T14:06:52.648Z,90.80
2023-05-11T14:10:54.659Z,90.60
2023-05-11T14:14:56.444Z,90.90
2023-05-11T14:18:58.326Z,90.60
2023-05-11T14:23:00.130Z,89.70
2023-05-11T14:27:03.041Z,90.10
2023-05-11T14:31:08.357Z,90.20
2023-05-11T14:35:49.534Z,89.50
2023-05-11T14:39:54.594Z,88.80
2023-05-11T14:43:56.574Z,90.10
2023-05-11T14:48:00.686Z,90.10
2023-05-11T14:52:39.696Z,89.40
2023-05-11T14:56:46.380Z,90.00
2023-05-11T15:00:50.641Z,89.00
2023-05-11T15:05:03.212Z,89.10
2023-05-11T15:09:05.299Z,89.20
2023-05-11T15:13:08.995Z,90.10
2023-05-11T15:17:10.837Z,90.00
2023-05-11T15:21:12.632Z,90.20
2023-05-11T15:25:14.421Z,89.90
2023-05-11T15:29:16.809Z,89.60
2023-05-11T15:33:20.521Z,89.10
2023-05-11T15:37:22.729Z,88.70
2023-05-11T15:41:29.392Z,88.90
2023-05-11T15:45:46.255Z,89.10
2023-05-11T15:50:05.806Z,89.80
2023-05-11T15:54:08.238Z,88.90
2023-05-11T15:58:13.353Z,89.60
2023-05-11T16:02:17.585Z,89.60
2023-05-11T16:06:22.436Z,88.90
2023-05-11T16:11:11.557Z,89.10
2023-05-11T16:15:43.634Z,89.60
2023-05-11T16:19:48.699Z,89.40
2023-05-11T16:23:50.690Z,89.70
2023-05-11T16:27:56.009Z,89.90
2023-05-11T16:32:02.264Z,90.00
2023-05-11T16:36:09.009Z,90.20
2023-05-11T16:40:22.384Z,90.40
2023-05-11T16:45:00.558Z,90.50
2023-05-11T16:49:20.827Z,90.40
2023-05-11T16:53:31.915Z,90.10
2023-05-11T16:57:58.659Z,90.10
2023-05-11T17:02:09.352Z,89.10
2023-05-11T17:06:14.536Z,89.50
2023-05-11T17:10:17.120Z,90.00
2023-05-11T17:14:19.530Z,90.20
2023-05-11T17:18:21.341Z,90.20
2023-05-11T17:23:15.222Z,90.30
2023-05-11T17:27:26.600Z,90.30
2023-05-11T17:31:36.916Z,90.60
2023-05-11T17:35:38.963Z,90.70
2023-05-11T17:41:02.979Z,90.80
2023-05-11T17:45:37.003Z,91.00
2023-05-11T17:49:50.936Z,91.00
2023-05-11T17:58:25.938Z,91.40
2023-05-11T18:02:30.346Z,91.60
2023-05-11T18:06:34.918Z,91.70
2023-05-11T18:10:38.917Z,91.60
2023-05-11T18:14:44.208Z,91.80
2023-05-11T18:18:48.817Z,91.80
2023-05-11T18:22:57.232Z,92.00
2023-05-11T18:27:13.514Z,92.10
2023-05-11T18:31:19.333Z,92.10
2023-05-11T18:35:22.423Z,92.70
2023-05-11T18:39:31.272Z,92.40
2023-05-11T18:43:41.114Z,92.50
2023-05-11T18:52:54.515Z,92.80
2023-05-11T18:57:19.400Z,92.90
2023-05-11T19:01:36.216Z,93.10
2023-05-11T19:06:09.469Z,93.20
2023-05-11T19:10:35.642Z,93.50
2023-05-11T19:15:09.689Z,93.70
2023-05-11T19:24:17.651Z,93.90
2023-05-11T19:44:41.656Z,95.20
2023-05-11T19:49:39.675Z,95.30
2023-05-11T20:04:04.733Z,95.90
2023-05-11T20:08:15.371Z,96.00
2023-05-11T20:14:31.211Z,95.70
2023-05-11T20:17:23.273Z,96.00
2023-05-11T20:21:33.286Z,97.10
2023-05-11T20:25:46.417Z,97.70
2023-05-11T20:30:19.513Z,98.00
2023-05-11T20:34:38.753Z,98.20
2023-05-11T20:38:40.987Z,96.90
2023-05-11T20:42:45.281Z,97.10
2023-05-11T20:48:00.627Z,97.80
2023-05-11T20:58:57.986Z,97.30
2023-05-11T21:02:18.964Z,99.00
2023-05-11T21:06:20.739Z,99.80
2023-05-11T21:10:22.725Z,99.80
2023-05-11T21:14:24.513Z,99.90
2023-05-11T21:18:32.092Z,99.90
2023-05-11T21:22:35.224Z,99.90
2023-05-11T21:26:37.249Z,99.90
2023-05-11T21:30:39.170Z,99.90
2023-05-11T21:34:41.044Z,99.90
2023-05-11T21:38:43.002Z,99.90
2023-05-11T21:42:44.764Z,99.90
2023-05-11T21:46:46.849Z,99.90
2023-05-11T21:50:55.461Z,99.90
2023-05-11T21:55:09.885Z,99.90
2023-05-11T21:59:11.728Z,99.90
2023-05-11T22:03:13.663Z,99.90
2023-05-11T22:07:15.956Z,99.90
2023-05-11T22:11:19.510Z,99.90
2023-05-11T22:15:22.711Z,99.90
2023-05-11T22:19:24.769Z,99.90
2023-05-11T22:23:29.271Z,99.90
2023-05-11T22:27:31.150Z,99.90
2023-05-11T22:31:32.994Z,99.90
2023-05-11T22:35:34.850Z,99.90
2023-05-11T22:39:36.694Z,99.90
2023-05-11T22:43:38.971Z,99.90
2023-05-11T22:47:40.729Z,99.90
2023-05-11T22:51:43.741Z,99.90
2023-05-11T22:55:45.682Z,99.90
2023-05-11T22:59:47.381Z,99.90
2023-05-11T23:03:49.090Z,99.90
2023-05-11T23:07:50.941Z,99.90
2023-05-11T23:11:53.415Z,99.90
2023-05-11T23:15:55.211Z,99.90
2023-05-11T23:19:57.239Z,99.90
2023-05-11T23:23:58.938Z,99.90
2023-05-11T23:28:00.647Z,99.90
2023-05-11T23:32:03.462Z,99.90
2023-05-11T23:36:05.491Z,99.90
2023-05-11T23:40:08.483Z,99.90
2023-05-11T23:44:10.240Z,99.90
2023-05-11T23:48:12.014Z,99.90
2023-05-11T23:52:13.791Z,99.90
2023-05-11T23:56:18.455Z,99.90
